F/V Le Dolmen — FHMD — position and weather

sailwx.info

Track history (hours):
 
Tides and Currents Weather Stations Pressure Air Temp Water Temp Dewpoint Dewpoint Depression Visibility Wind Speed Wind Dir Waves Ship Positions

F/V Le Dolmen

Last reported at 2016-Dec-05 01:33 UTC. Time now 2016-Dec-05 10:29 UTC.
Position N 47°19' W 002°34'.

Length 18 m.

Type: Fishing. MMSI: 228374000.

Date/timePositionNaut miles runAvg speedWind from/ knotsBaromVisibWave heightAir tempDewpointWater temp
2016-Dec-05 01:33N 47°19' W 002°34'0 0.2
2016-Dec-04 23:33N 47°19' W 002°34'9 8.9
2016-Dec-04 22:33N 47°12' W 002°43'8 7.9
2016-Dec-04 21:33N 47°07' W 002°52'3 2.6
2016-Dec-04 20:30N 47°05' W 002°53'3 3.2
2016-Dec-04 19:33N 47°02' W 002°52'4 0.8
2016-Dec-04 14:33N 47°01' W 002°46'3 3.2
2016-Dec-04 13:33N 46°60' W 002°50'3 0.8
2016-Dec-04 10:30N 47°01' W 002°47'6 1.7
2016-Dec-04 07:19N 46°56' W 002°43'2 2.7
2016-Dec-04 06:33N 46°58' W 002°45'1 0.6
2016-Dec-04 04:07N 46°57' W 002°43'2 2.4
2016-Dec-04 03:24N 46°58' W 002°45'3 2.6
2016-Dec-04 02:26N 47°00' W 002°47'6 2.2
2016-Dec-03 23:32N 46°56' W 002°40'2 2.3
2016-Dec-03 22:33N 46°57' W 002°42'4 0.3
2016-Dec-03 08:15N 46°59' W 002°47'1 1.9
2016-Dec-03 07:27N 46°60' W 002°49'3 2.6
2016-Dec-03 06:15N 47°02' W 002°52'2 2.9
2016-Dec-03 05:30N 47°04' W 002°53'3 2.9
2016-Dec-03 04:33N 47°07' W 002°53'3 2.9
2016-Dec-03 03:33N 47°10' W 002°52'2 2.3
2016-Dec-03 02:33N 47°12' W 002°50'3 3.4
2016-Dec-03 01:33N 47°08' W 002°50'2 2.4
2016-Dec-03 00:30N 47°06' W 002°52'3 2.9
2016-Dec-02 23:33N 47°09' W 002°51'1 0.7
2016-Dec-02 22:33N 47°08' W 002°51'3 2.7
2016-Dec-02 21:33N 47°06' W 002°52'2 2.2
2016-Dec-02 20:33N 47°08' W 002°54'2 2.4
2016-Dec-02 19:33N 47°08' W 002°57'2 2.3
2016-Dec-02 18:33N 47°07' W 003°00'3 2.6
2016-Dec-02 17:33N 47°05' W 003°03'3 2.9
2016-Dec-02 16:33N 47°02' W 003°03'1 0.7
2016-Dec-02 15:24N 47°03' W 003°02'3 3.0
2016-Dec-02 14:30N 47°05' W 003°03'3 2.7
2016-Dec-02 13:33N 47°08' W 003°02'3 3.0
2016-Dec-02 12:33N 47°10' W 002°59'3 3.2
2016-Dec-02 11:33N 47°11' W 002°55'1 1.1
2016-Dec-02 10:33N 47°12' W 002°56'2 2.2
2016-Dec-02 09:33N 47°12' W 002°60'3 3.0
2016-Dec-02 08:34N 47°13' W 002°56'2 2.2
2016-Dec-02 07:34N 47°11' W 002°57'2 1.8
2016-Dec-02 06:33N 47°13' W 002°59'4 4.1
2016-Dec-02 05:33N 47°14' W 002°53'9 9.1
2016-Dec-02 04:34N 47°18' W 002°42'8 7.9
2016-Dec-02 03:33N 47°21' W 002°31'0 0.0
2016-Dec-02 02:34N 47°21' W 002°31'0 0.1
2016-Dec-02 00:34N 47°21' W 002°31'9 8.8
2016-Dec-01 23:33N 47°13' W 002°36'9 8.8
2016-Dec-01 22:33N 47°04' W 002°39'9 8.6
2016-Dec-01 21:33N 46°55' W 002°41'5 4.7
2016-Dec-01 20:33N 46°51' W 002°43'3 2.6
2016-Dec-01 19:33N 46°50' W 002°46'3 2.5
2016-Dec-01 18:33N 46°48' W 002°49'3 2.8
2016-Dec-01 17:33N 46°46' W 002°52'4 3.3
2016-Dec-01 16:24N 46°43' W 002°49'  
2016-Nov-29 01:30N 47°21' W 002°31'0 0.0
2016-Nov-29 00:09N 47°21' W 002°31'5 8.9
2016-Nov-28 23:33N 47°17' W 002°36'10 9.7
2016-Nov-28 22:33N 47°10' W 002°46'5 5.4
2016-Nov-28 21:33N 47°05' W 002°50'3 2.7
2016-Nov-28 20:30N 47°03' W 002°52'3 2.8
2016-Nov-28 19:30N 47°00' W 002°51'2 2.3
2016-Nov-28 18:30N 46°59' W 002°54'2 0.6
2016-Nov-28 14:28N 46°60' W 002°50'3 1.4
2016-Nov-28 12:12N 47°02' W 002°47'2 2.8
2016-Nov-28 11:33N 47°00' W 002°48'2 2.4
2016-Nov-28 10:33N 47°01' W 002°52'3 2.5
2016-Nov-28 09:24N 47°00' W 002°48'2 1.2
2016-Nov-28 08:06N 47°02' W 002°46'1 2.2
2016-Nov-28 07:33N 47°01' W 002°47'2 0.7
2016-Nov-28 05:15N 47°01' W 002°45'1 2.1
2016-Nov-28 04:33N 47°01' W 002°47'2 2.4
2016-Nov-28 03:33N 46°60' W 002°50'3 2.7
2016-Nov-28 02:33N 46°60' W 002°54'3 2.7
2016-Nov-28 01:33N 47°00' W 002°58'2 2.4
2016-Nov-28 00:33N 47°02' W 002°59'2 2.5
2016-Nov-27 23:33N 47°01' W 002°55'3 3.0
2016-Nov-27 22:30N 46°60' W 002°51'2 2.2
2016-Nov-27 21:30N 47°01' W 002°48'3 2.7
2016-Nov-27 20:33N 46°58' W 002°50'2 2.5
2016-Nov-27 19:33N 46°58' W 002°54'2 2.4
2016-Nov-27 18:33N 46°59' W 002°57'1 0.7
2016-Nov-27 17:33N 46°59' W 002°57'20 1.8
2016-Nov-27 06:06N 46°42' W 002°42'1 0.1
2016-Nov-26 22:10N 46°42' W 002°43'2 2.4
2016-Nov-26 21:33N 46°42' W 002°45'6 2.8
2016-Nov-26 19:25N 46°45' W 002°37'3 3.3
2016-Nov-26 18:32N 46°46' W 002°34'2 2.5
2016-Nov-26 17:34N 46°49' W 002°34'3 2.6
2016-Nov-26 16:33N 46°51' W 002°37'6 2.5
2016-Nov-26 14:04N 46°55' W 002°44'2 3.0
2016-Nov-26 13:33N 46°56' W 002°44'1 0.5
2016-Nov-26 11:29N 46°55' W 002°43'3 2.7
2016-Nov-26 10:33N 46°58' W 002°44'3 2.5
2016-Nov-26 09:28N 47°00' W 002°44'2 2.1
2016-Nov-26 08:33N 47°01' W 002°47'4 1.4
2016-Nov-26 05:24N 47°05' W 002°50'3 3.6
2016-Nov-26 04:33N 47°08' W 002°50'9 8.6
2016-Nov-26 03:33N 47°15' W 002°58'9 8.7
2016-Nov-26 02:33N 47°22' W 003°05'9 8.8
2016-Nov-26 01:34N 47°30' W 003°12'9 9.0
2016-Nov-26 00:34N 47°37' W 003°19'7 6.6
2016-Nov-25 23:33N 47°44' W 003°22'0 0.1
2016-Nov-25 22:33N 47°44' W 003°22'0 0.0
2016-Nov-25 21:33N 47°44' W 003°22'0 0.0
2016-Nov-25 20:34N 47°44' W 003°22'0 0.0
2016-Nov-25 19:34N 47°44' W 003°22'0 0.0
2016-Nov-25 18:34N 47°44' W 003°22'0 0.0
2016-Nov-25 17:33N 47°44' W 003°22'0 0.0
2016-Nov-25 16:34N 47°44' W 003°22'0 0.0
2016-Nov-25 15:34N 47°44' W 003°22'0 0.0
2016-Nov-25 14:34N 47°44' W 003°22'0 0.0
2016-Nov-25 13:33N 47°44' W 003°22'0 0.0
2016-Nov-25 12:34N 47°44' W 003°22'0 0.0
2016-Nov-25 11:33N 47°44' W 003°22'0 0.0
2016-Nov-25 10:34N 47°44' W 003°22'0 0.0
2016-Nov-25 09:34N 47°44' W 003°22'0 0.0
2016-Nov-25 08:34N 47°44' W 003°22'0 0.0
2016-Nov-25 07:33N 47°44' W 003°22'0 0.0
2016-Nov-25 06:33N 47°44' W 003°22'0 0.0
2016-Nov-25 05:33N 47°44' W 003°22'0 0.0
2016-Nov-25 04:33N 47°44' W 003°22'0 0.0
2016-Nov-25 03:34N 47°44' W 003°22'0 0.0
2016-Nov-25 02:34N 47°44' W 003°22'0 0.1
2016-Nov-25 01:34N 47°44' W 003°22'  
Track history (hours):
 
Tides and Currents Weather Stations Pressure Air Temp Water Temp Dewpoint Dewpoint Depression Visibility Wind Speed Wind Dir Waves Ship Positions

F/V Le Dolmen

Last reported at 2016-Dec-05 01:33 UTC. Time now 2016-Dec-05 10:29 UTC.
Position N 47°19' W 002°34'.

Length 18 m.

Type: Fishing. MMSI: 228374000.

Date/timePositionNaut miles runAvg speedWind from/ knotsBaromVisibWave heightAir tempDewpointWater temp
2016-Dec-05 01:33N 47°19' W 002°34'0 0.2
2016-Dec-04 23:33N 47°19' W 002°34'9 8.9
2016-Dec-04 22:33N 47°12' W 002°43'8 7.9
2016-Dec-04 21:33N 47°07' W 002°52'3 2.6
2016-Dec-04 20:30N 47°05' W 002°53'3 3.2
2016-Dec-04 19:33N 47°02' W 002°52'4 0.8
2016-Dec-04 14:33N 47°01' W 002°46'3 3.2
2016-Dec-04 13:33N 46°60' W 002°50'3 0.8
2016-Dec-04 10:30N 47°01' W 002°47'6 1.7
2016-Dec-04 07:19N 46°56' W 002°43'2 2.7
2016-Dec-04 06:33N 46°58' W 002°45'1 0.6
2016-Dec-04 04:07N 46°57' W 002°43'2 2.4
2016-Dec-04 03:24N 46°58' W 002°45'3 2.6
2016-Dec-04 02:26N 47°00' W 002°47'6 2.2
2016-Dec-03 23:32N 46°56' W 002°40'2 2.3
2016-Dec-03 22:33N 46°57' W 002°42'4 0.3
2016-Dec-03 08:15N 46°59' W 002°47'1 1.9
2016-Dec-03 07:27N 46°60' W 002°49'3 2.6
2016-Dec-03 06:15N 47°02' W 002°52'2 2.9
2016-Dec-03 05:30N 47°04' W 002°53'3 2.9
2016-Dec-03 04:33N 47°07' W 002°53'3 2.9
2016-Dec-03 03:33N 47°10' W 002°52'2 2.3
2016-Dec-03 02:33N 47°12' W 002°50'3 3.4
2016-Dec-03 01:33N 47°08' W 002°50'2 2.4
2016-Dec-03 00:30N 47°06' W 002°52'3 2.9
2016-Dec-02 23:33N 47°09' W 002°51'1 0.7
2016-Dec-02 22:33N 47°08' W 002°51'3 2.7
2016-Dec-02 21:33N 47°06' W 002°52'2 2.2
2016-Dec-02 20:33N 47°08' W 002°54'2 2.4
2016-Dec-02 19:33N 47°08' W 002°57'2 2.3
2016-Dec-02 18:33N 47°07' W 003°00'3 2.6
2016-Dec-02 17:33N 47°05' W 003°03'3 2.9
2016-Dec-02 16:33N 47°02' W 003°03'1 0.7
2016-Dec-02 15:24N 47°03' W 003°02'3 3.0
2016-Dec-02 14:30N 47°05' W 003°03'3 2.7
2016-Dec-02 13:33N 47°08' W 003°02'3 3.0
2016-Dec-02 12:33N 47°10' W 002°59'3 3.2
2016-Dec-02 11:33N 47°11' W 002°55'1 1.1
2016-Dec-02 10:33N 47°12' W 002°56'2 2.2
2016-Dec-02 09:33N 47°12' W 002°60'3 3.0
2016-Dec-02 08:34N 47°13' W 002°56'2 2.2
2016-Dec-02 07:34N 47°11' W 002°57'2 1.8
2016-Dec-02 06:33N 47°13' W 002°59'4 4.1
2016-Dec-02 05:33N 47°14' W 002°53'9 9.1
2016-Dec-02 04:34N 47°18' W 002°42'8 7.9
2016-Dec-02 03:33N 47°21' W 002°31'0 0.0
2016-Dec-02 02:34N 47°21' W 002°31'0 0.1
2016-Dec-02 00:34N 47°21' W 002°31'9 8.8
2016-Dec-01 23:33N 47°13' W 002°36'9 8.8
2016-Dec-01 22:33N 47°04' W 002°39'9 8.6
2016-Dec-01 21:33N 46°55' W 002°41'5 4.7
2016-Dec-01 20:33N 46°51' W 002°43'3 2.6
2016-Dec-01 19:33N 46°50' W 002°46'3 2.5
2016-Dec-01 18:33N 46°48' W 002°49'3 2.8
2016-Dec-01 17:33N 46°46' W 002°52'4 3.3
2016-Dec-01 16:24N 46°43' W 002°49'  
2016-Nov-29 01:30N 47°21' W 002°31'0 0.0
2016-Nov-29 00:09N 47°21' W 002°31'5 8.9
2016-Nov-28 23:33N 47°17' W 002°36'10 9.7
2016-Nov-28 22:33N 47°10' W 002°46'5 5.4
2016-Nov-28 21:33N 47°05' W 002°50'3 2.7
2016-Nov-28 20:30N 47°03' W 002°52'3 2.8
2016-Nov-28 19:30N 47°00' W 002°51'2 2.3
2016-Nov-28 18:30N 46°59' W 002°54'2 0.6
2016-Nov-28 14:28N 46°60' W 002°50'3 1.4
2016-Nov-28 12:12N 47°02' W 002°47'2 2.8
2016-Nov-28 11:33N 47°00' W 002°48'2 2.4
2016-Nov-28 10:33N 47°01' W 002°52'3 2.5
2016-Nov-28 09:24N 47°00' W 002°48'2 1.2
2016-Nov-28 08:06N 47°02' W 002°46'1 2.2
2016-Nov-28 07:33N 47°01' W 002°47'2 0.7
2016-Nov-28 05:15N 47°01' W 002°45'1 2.1
2016-Nov-28 04:33N 47°01' W 002°47'2 2.4
2016-Nov-28 03:33N 46°60' W 002°50'3 2.7
2016-Nov-28 02:33N 46°60' W 002°54'3 2.7
2016-Nov-28 01:33N 47°00' W 002°58'2 2.4
2016-Nov-28 00:33N 47°02' W 002°59'2 2.5
2016-Nov-27 23:33N 47°01' W 002°55'3 3.0
2016-Nov-27 22:30N 46°60' W 002°51'2 2.2
2016-Nov-27 21:30N 47°01' W 002°48'3 2.7
2016-Nov-27 20:33N 46°58' W 002°50'2 2.5
2016-Nov-27 19:33N 46°58' W 002°54'2 2.4
2016-Nov-27 18:33N 46°59' W 002°57'1 0.7
2016-Nov-27 17:33N 46°59' W 002°57'20 1.8
2016-Nov-27 06:06N 46°42' W 002°42'1 0.1
2016-Nov-26 22:10N 46°42' W 002°43'2 2.4
2016-Nov-26 21:33N 46°42' W 002°45'6 2.8
2016-Nov-26 19:25N 46°45' W 002°37'3 3.3
2016-Nov-26 18:32N 46°46' W 002°34'2 2.5
2016-Nov-26 17:34N 46°49' W 002°34'3 2.6
2016-Nov-26 16:33N 46°51' W 002°37'6 2.5
2016-Nov-26 14:04N 46°55' W 002°44'2 3.0
2016-Nov-26 13:33N 46°56' W 002°44'1 0.5
2016-Nov-26 11:29N 46°55' W 002°43'3 2.7
2016-Nov-26 10:33N 46°58' W 002°44'3 2.5
2016-Nov-26 09:28N 47°00' W 002°44'2 2.1
2016-Nov-26 08:33N 47°01' W 002°47'4 1.4
2016-Nov-26 05:24N 47°05' W 002°50'3 3.6
2016-Nov-26 04:33N 47°08' W 002°50'9 8.6
2016-Nov-26 03:33N 47°15' W 002°58'9 8.7
2016-Nov-26 02:33N 47°22' W 003°05'9 8.8
2016-Nov-26 01:34N 47°30' W 003°12'9 9.0
2016-Nov-26 00:34N 47°37' W 003°19'7 6.6
2016-Nov-25 23:33N 47°44' W 003°22'0 0.1
2016-Nov-25 22:33N 47°44' W 003°22'0 0.0
2016-Nov-25 21:33N 47°44' W 003°22'0 0.0
2016-Nov-25 20:34N 47°44' W 003°22'0 0.0
2016-Nov-25 19:34N 47°44' W 003°22'0 0.0
2016-Nov-25 18:34N 47°44' W 003°22'0 0.0
2016-Nov-25 17:33N 47°44' W 003°22'0 0.0
2016-Nov-25 16:34N 47°44' W 003°22'0 0.0
2016-Nov-25 15:34N 47°44' W 003°22'0 0.0
2016-Nov-25 14:34N 47°44' W 003°22'0 0.0
2016-Nov-25 13:33N 47°44' W 003°22'0 0.0
2016-Nov-25 12:34N 47°44' W 003°22'0 0.0
2016-Nov-25 11:33N 47°44' W 003°22'0 0.0
2016-Nov-25 10:34N 47°44' W 003°22'0 0.0
2016-Nov-25 09:34N 47°44' W 003°22'0 0.0
2016-Nov-25 08:34N 47°44' W 003°22'0 0.0
2016-Nov-25 07:33N 47°44' W 003°22'0 0.0
2016-Nov-25 06:33N 47°44' W 003°22'0 0.0
2016-Nov-25 05:33N 47°44' W 003°22'0 0.0
2016-Nov-25 04:33N 47°44' W 003°22'0 0.0
2016-Nov-25 03:34N 47°44' W 003°22'0 0.0
2016-Nov-25 02:34N 47°44' W 003°22'0 0.1
2016-Nov-25 01:34N 47°44' W 003°22'  

Dump ship's entire track history